MSC Bari — A8YD3 — position and weather

sailwx.info

Track history (hours):
 
Tides and Currents Weather Stations Pressure Air Temp Water Temp Dewpoint Dewpoint Depression Visibility Wind Speed Wind Dir Waves Ship Positions

MSC Bari

Last reported at 2017-Feb-10 12:00 UTC. Time now 2017-Feb-23 09:24 UTC.
Position N 33°00' E 030°00'.
Warning: this ship's position is 12 days out of date.

Length 366 m; draft 15.3 m.

Type: Ship (hazmat cat A). MMSI: 636092188.

Wind from 130 at 6 knots

Barometer 1020.0 mb
Air temperature 16.0 ° C
Visibility: greater than 10.8 NM
Dewpoint 12.4 ° C
Water temperature 17.9 ° C

Date/timePositionNaut miles runAvg speedWind from/ knotsBaromVisibWave heightAir tempDewpointWater temp
2017-Feb-10 12:00N 33°00' E 030°00'40818.7 130 / 61020.010.8 16.012.417.9
2017-Feb-09 14:10N 37°31' E 023°47'1219.0
2017-Feb-09 13:33N 37°42' E 023°40'1414.1
2017-Feb-09 12:33N 37°56' E 023°36'2 1.7
2017-Feb-09 11:27N 37°57' E 023°35'0 0.0
2017-Feb-09 10:33N 37°57' E 023°35'0 0.0
2017-Feb-09 09:33N 37°57' E 023°35'0 0.0
2017-Feb-09 08:33N 37°57' E 023°35'0 0.0
2017-Feb-09 07:33N 37°57' E 023°35'0 0.0
2017-Feb-09 06:33N 37°57' E 023°35'0 0.0
2017-Feb-09 05:33N 37°57' E 023°35'0 0.0
2017-Feb-09 04:33N 37°57' E 023°35'0 0.0
2017-Feb-09 03:33N 37°57' E 023°35'0 0.0
2017-Feb-09 02:33N 37°57' E 023°35'0 0.0
2017-Feb-09 01:33N 37°57' E 023°35'0 0.0
2017-Feb-09 00:33N 37°57' E 023°35'0 0.0
2017-Feb-08 23:33N 37°57' E 023°35'0 0.0
2017-Feb-08 22:33N 37°57' E 023°35'0 0.0
2017-Feb-08 21:33N 37°57' E 023°35'0 0.0
2017-Feb-08 20:33N 37°57' E 023°35'0 0.0
2017-Feb-08 19:33N 37°57' E 023°35'0 0.0
2017-Feb-08 18:33N 37°57' E 023°35'0 0.0
2017-Feb-08 17:33N 37°57' E 023°35'0 0.0
2017-Feb-08 16:33N 37°57' E 023°35'0 0.0
2017-Feb-08 15:33N 37°57' E 023°35'0 0.0
2017-Feb-08 14:33N 37°57' E 023°35'0 0.0
2017-Feb-08 13:33N 37°57' E 023°35'0 0.0
2017-Feb-08 12:33N 37°57' E 023°35'0 0.0
2017-Feb-08 11:33N 37°57' E 023°35'0 0.0
2017-Feb-08 10:33N 37°57' E 023°35'0 0.0
2017-Feb-08 09:33N 37°57' E 023°35'0 0.0
2017-Feb-08 08:33N 37°57' E 023°35'0 0.0
2017-Feb-08 07:33N 37°57' E 023°35'0 0.0
2017-Feb-08 06:33N 37°57' E 023°35'0 0.0
2017-Feb-08 05:33N 37°57' E 023°35'0 0.0
2017-Feb-08 04:33N 37°57' E 023°35'0 0.0
2017-Feb-08 03:33N 37°57' E 023°35'0 0.0
2017-Feb-08 02:33N 37°57' E 023°35'0 0.0
2017-Feb-08 01:33N 37°57' E 023°35'0 0.0
2017-Feb-08 00:33N 37°57' E 023°35'0 0.1
2017-Feb-07 23:33N 37°57' E 023°35'3 3.4
2017-Feb-07 22:33N 37°54' E 023°35'5 5.3
2017-Feb-07 21:33N 37°49' E 023°34'1 0.6
2017-Feb-07 20:33N 37°48' E 023°34'0 0.3
2017-Feb-07 19:33N 37°48' E 023°34'0 0.3
2017-Feb-07 18:33N 37°48' E 023°34'3 3.2
2017-Feb-07 17:33N 37°51' E 023°36'1 0.7
2017-Feb-07 16:33N 37°51' E 023°35'1 1.2
2017-Feb-07 15:33N 37°50' E 023°36'2 2.0
2017-Feb-07 14:33N 37°51' E 023°34'1 1.0
2017-Feb-07 13:33N 37°50' E 023°34'1 0.9
2017-Feb-07 12:34N 37°51' E 023°35'0 0.4
2017-Feb-07 11:33N 37°51' E 023°34'1 1.1
2017-Feb-07 10:33N 37°51' E 023°36'2 1.8
2017-Feb-07 09:33N 37°52' E 023°38'0 0.2
2017-Feb-07 08:34N 37°52' E 023°38'1413.5
2017-Feb-07 07:33N 37°39' E 023°45'3 3.1
2017-Feb-07 06:33N 37°37' E 023°48'2 2.0
2017-Feb-07 05:34N 37°35' E 023°47'2 1.7
2017-Feb-07 04:34N 37°34' E 023°47'1 1.5
2017-Feb-07 03:33N 37°32' E 023°48'4 4.5
2017-Feb-07 02:34N 37°36' E 023°44'1 0.9
2017-Feb-07 01:33N 37°36' E 023°45'2 2.3
2017-Feb-07 00:33N 37°34' E 023°47'2 2.3
2017-Feb-06 23:33N 37°34' E 023°50'0 0.4
2017-Feb-06 22:32N 37°33' E 023°50'1 0.9
2017-Feb-06 21:33N 37°33' E 023°49'0 0.2
2017-Feb-06 20:33N 37°32' E 023°49'1110.5
2017-Feb-06 19:29N 37°36' E 024°02'1213.2
2017-Feb-06 18:33N 37°43' E 024°15'1413.7
2017-Feb-06 17:34N 37°52' E 024°28'3715.2
2017-Feb-06 15:09N 38°23' E 024°52'  
Track history (hours):
 
Tides and Currents Weather Stations Pressure Air Temp Water Temp Dewpoint Dewpoint Depression Visibility Wind Speed Wind Dir Waves Ship Positions

MSC Bari

Last reported at 2017-Feb-10 12:00 UTC. Time now 2017-Feb-23 09:24 UTC.
Position N 33°00' E 030°00'.
Warning: this ship's position is 12 days out of date.

Length 366 m; draft 15.3 m.

Type: Ship (hazmat cat A). MMSI: 636092188.

Wind from 130 at 6 knots

Barometer 1020.0 mb
Air temperature 16.0 ° C
Visibility: greater than 10.8 NM
Dewpoint 12.4 ° C
Water temperature 17.9 ° C

Date/timePositionNaut miles runAvg speedWind from/ knotsBaromVisibWave heightAir tempDewpointWater temp
2017-Feb-10 12:00N 33°00' E 030°00'40818.7 130 / 61020.010.8 16.012.417.9
2017-Feb-09 14:10N 37°31' E 023°47'1219.0
2017-Feb-09 13:33N 37°42' E 023°40'1414.1
2017-Feb-09 12:33N 37°56' E 023°36'2 1.7
2017-Feb-09 11:27N 37°57' E 023°35'0 0.0
2017-Feb-09 10:33N 37°57' E 023°35'0 0.0
2017-Feb-09 09:33N 37°57' E 023°35'0 0.0
2017-Feb-09 08:33N 37°57' E 023°35'0 0.0
2017-Feb-09 07:33N 37°57' E 023°35'0 0.0
2017-Feb-09 06:33N 37°57' E 023°35'0 0.0
2017-Feb-09 05:33N 37°57' E 023°35'0 0.0
2017-Feb-09 04:33N 37°57' E 023°35'0 0.0
2017-Feb-09 03:33N 37°57' E 023°35'0 0.0
2017-Feb-09 02:33N 37°57' E 023°35'0 0.0
2017-Feb-09 01:33N 37°57' E 023°35'0 0.0
2017-Feb-09 00:33N 37°57' E 023°35'0 0.0
2017-Feb-08 23:33N 37°57' E 023°35'0 0.0
2017-Feb-08 22:33N 37°57' E 023°35'0 0.0
2017-Feb-08 21:33N 37°57' E 023°35'0 0.0
2017-Feb-08 20:33N 37°57' E 023°35'0 0.0
2017-Feb-08 19:33N 37°57' E 023°35'0 0.0
2017-Feb-08 18:33N 37°57' E 023°35'0 0.0
2017-Feb-08 17:33N 37°57' E 023°35'0 0.0
2017-Feb-08 16:33N 37°57' E 023°35'0 0.0
2017-Feb-08 15:33N 37°57' E 023°35'0 0.0
2017-Feb-08 14:33N 37°57' E 023°35'0 0.0
2017-Feb-08 13:33N 37°57' E 023°35'0 0.0
2017-Feb-08 12:33N 37°57' E 023°35'0 0.0
2017-Feb-08 11:33N 37°57' E 023°35'0 0.0
2017-Feb-08 10:33N 37°57' E 023°35'0 0.0
2017-Feb-08 09:33N 37°57' E 023°35'0 0.0
2017-Feb-08 08:33N 37°57' E 023°35'0 0.0
2017-Feb-08 07:33N 37°57' E 023°35'0 0.0
2017-Feb-08 06:33N 37°57' E 023°35'0 0.0
2017-Feb-08 05:33N 37°57' E 023°35'0 0.0
2017-Feb-08 04:33N 37°57' E 023°35'0 0.0
2017-Feb-08 03:33N 37°57' E 023°35'0 0.0
2017-Feb-08 02:33N 37°57' E 023°35'0 0.0
2017-Feb-08 01:33N 37°57' E 023°35'0 0.0
2017-Feb-08 00:33N 37°57' E 023°35'0 0.1
2017-Feb-07 23:33N 37°57' E 023°35'3 3.4
2017-Feb-07 22:33N 37°54' E 023°35'5 5.3
2017-Feb-07 21:33N 37°49' E 023°34'1 0.6
2017-Feb-07 20:33N 37°48' E 023°34'0 0.3
2017-Feb-07 19:33N 37°48' E 023°34'0 0.3
2017-Feb-07 18:33N 37°48' E 023°34'3 3.2
2017-Feb-07 17:33N 37°51' E 023°36'1 0.7
2017-Feb-07 16:33N 37°51' E 023°35'1 1.2
2017-Feb-07 15:33N 37°50' E 023°36'2 2.0
2017-Feb-07 14:33N 37°51' E 023°34'1 1.0
2017-Feb-07 13:33N 37°50' E 023°34'1 0.9
2017-Feb-07 12:34N 37°51' E 023°35'0 0.4
2017-Feb-07 11:33N 37°51' E 023°34'1 1.1
2017-Feb-07 10:33N 37°51' E 023°36'2 1.8
2017-Feb-07 09:33N 37°52' E 023°38'0 0.2
2017-Feb-07 08:34N 37°52' E 023°38'1413.5
2017-Feb-07 07:33N 37°39' E 023°45'3 3.1
2017-Feb-07 06:33N 37°37' E 023°48'2 2.0
2017-Feb-07 05:34N 37°35' E 023°47'2 1.7
2017-Feb-07 04:34N 37°34' E 023°47'1 1.5
2017-Feb-07 03:33N 37°32' E 023°48'4 4.5
2017-Feb-07 02:34N 37°36' E 023°44'1 0.9
2017-Feb-07 01:33N 37°36' E 023°45'2 2.3
2017-Feb-07 00:33N 37°34' E 023°47'2 2.3
2017-Feb-06 23:33N 37°34' E 023°50'0 0.4
2017-Feb-06 22:32N 37°33' E 023°50'1 0.9
2017-Feb-06 21:33N 37°33' E 023°49'0 0.2
2017-Feb-06 20:33N 37°32' E 023°49'1110.5
2017-Feb-06 19:29N 37°36' E 024°02'1213.2
2017-Feb-06 18:33N 37°43' E 024°15'1413.7
2017-Feb-06 17:34N 37°52' E 024°28'3715.2
2017-Feb-06 15:09N 38°23' E 024°52'  

Dump ship's entire track history